createdAt,value
2022-11-22T00:01:12.699Z,97893.81
2022-11-22T00:04:04.005Z,97902.31
2022-11-22T00:07:00.907Z,97889.66
2022-11-22T00:10:30.580Z,97905.50
2022-11-22T00:17:06.167Z,97891.88
2022-11-22T00:20:16.605Z,97877.41
2022-11-22T00:23:30.663Z,97873.19
2022-11-22T00:26:19.169Z,97878.69
2022-11-22T00:29:19.211Z,97870.31
2022-11-22T00:32:25.342Z,97863.16
2022-11-22T00:35:34.720Z,97853.97
2022-11-22T00:38:38.408Z,97838.31
2022-11-22T00:41:31.821Z,97837.72
2022-11-22T00:44:23.291Z,97830.47
2022-11-22T00:47:11.752Z,97848.94
2022-11-22T00:50:05.747Z,97846.22
2022-11-22T00:52:58.902Z,97828.00
2022-11-22T00:55:47.119Z,97811.38
2022-11-22T00:58:35.617Z,97821.06
2022-11-22T01:01:23.958Z,97826.00
2022-11-22T01:04:12.293Z,97842.72
2022-11-22T01:07:00.551Z,97847.28
2022-11-22T01:09:49.198Z,97830.78
2022-11-22T01:12:38.764Z,97842.94
2022-11-22T01:15:29.566Z,97849.94
2022-11-22T01:18:17.816Z,97854.09
2022-11-22T01:21:06.585Z,97841.16
2022-11-22T01:23:55.264Z,97848.88
2022-11-22T01:26:43.586Z,97844.41
2022-11-22T01:29:31.928Z,97846.41
2022-11-22T01:32:20.187Z,97852.94
2022-11-22T01:35:10.637Z,97867.25
2022-11-22T01:38:01.558Z,97847.94
2022-11-22T01:40:49.646Z,97854.06
2022-11-22T01:43:37.771Z,97872.34
2022-11-22T01:46:37.690Z,97877.28
2022-11-22T01:49:40.660Z,97872.75
2022-11-22T01:52:33.430Z,97888.66
2022-11-22T01:55:21.891Z,97881.22
2022-11-22T01:58:14.696Z,97881.88
2022-11-22T02:01:03.396Z,97871.84
2022-11-22T02:03:54.289Z,97875.59
2022-11-22T02:07:26.612Z,97879.69
2022-11-22T02:10:17.837Z,97882.31
2022-11-22T02:13:08.544Z,97876.25
2022-11-22T02:15:56.842Z,97877.75
2022-11-22T02:18:44.782Z,97870.31
2022-11-22T02:21:33.340Z,97872.09
2022-11-22T02:24:32.101Z,97880.59
2022-11-22T02:27:20.079Z,97886.31
2022-11-22T02:30:08.722Z,97892.88
2022-11-22T02:32:56.619Z,97886.66
2022-11-22T02:35:45.180Z,97890.34
2022-11-22T02:38:35.707Z,97885.06
2022-11-22T02:41:23.687Z,97868.38
2022-11-22T02:44:13.202Z,97886.78
2022-11-22T02:47:01.208Z,97896.66
2022-11-22T02:49:49.286Z,97896.47
2022-11-22T02:52:37.444Z,97887.59
2022-11-22T02:55:25.716Z,97909.75
2022-11-22T02:58:13.854Z,97899.56
2022-11-22T03:01:02.336Z,97897.63
2022-11-22T03:03:50.340Z,97893.44
2022-11-22T03:06:38.480Z,97887.81
2022-11-22T03:09:28.049Z,97892.72
2022-11-22T03:12:16.220Z,97878.97
2022-11-22T03:15:04.659Z,97902.25
2022-11-22T03:18:04.151Z,97910.72
2022-11-22T03:20:52.513Z,97915.91
2022-11-22T03:23:40.892Z,97912.47
2022-11-22T03:26:29.182Z,97917.09
2022-11-22T03:29:20.776Z,97919.59
2022-11-22T03:32:08.780Z,97913.06
2022-11-22T03:34:56.844Z,97912.78
2022-11-22T03:37:47.457Z,97897.44
2022-11-22T03:40:35.762Z,97889.84
2022-11-22T03:43:23.671Z,97923.94
2022-11-22T03:46:19.803Z,97924.47
2022-11-22T03:49:07.723Z,97927.59
2022-11-22T03:51:55.837Z,97943.28
2022-11-22T03:54:44.099Z,97949.53
2022-11-22T03:57:32.283Z,97946.94
2022-11-22T04:00:20.679Z,97942.00
2022-11-22T04:03:09.044Z,97952.53
2022-11-22T04:05:57.462Z,97953.47
2022-11-22T04:08:45.453Z,97940.94
2022-11-22T04:11:33.391Z,97944.44
2022-11-22T04:14:39.593Z,97947.66
2022-11-22T04:17:45.099Z,97950.25
2022-11-22T04:20:53.213Z,97948.28
2022-11-22T04:23:43.343Z,97944.34
2022-11-22T04:26:34.449Z,97955.59
2022-11-22T04:29:23.644Z,97949.16
2022-11-22T04:32:30.291Z,97947.19
2022-11-22T04:35:21.194Z,97951.25
2022-11-22T04:38:09.461Z,97949.25
2022-11-22T04:40:57.730Z,97949.72
2022-11-22T04:44:04.228Z,97954.16
2022-11-22T04:46:52.195Z,97948.78
2022-11-22T04:49:40.332Z,97950.59
2022-11-22T04:52:47.140Z,97957.16
2022-11-22T04:55:35.197Z,97955.50
2022-11-22T04:58:24.228Z,97956.53
2022-11-22T05:01:24.359Z,97957.44
2022-11-22T05:04:14.849Z,97958.38
2022-11-22T05:07:03.250Z,97961.31
2022-11-22T05:09:56.155Z,97975.06
2022-11-22T05:12:54.467Z,97980.72
2022-11-22T05:15:44.975Z,97985.72
2022-11-22T05:18:33.701Z,97988.31
2022-11-22T05:21:21.975Z,97982.03
2022-11-22T05:24:10.336Z,97988.16
2022-11-22T05:26:58.424Z,97991.53
2022-11-22T05:29:46.586Z,98003.88
2022-11-22T05:32:35.145Z,97996.97
2022-11-22T05:35:23.294Z,97997.28
2022-11-22T05:38:11.657Z,97997.28
2022-11-22T05:41:02.648Z,97999.84
2022-11-22T05:43:50.782Z,98008.88
2022-11-22T05:46:39.247Z,98000.09
2022-11-22T05:49:30.569Z,98008.19
2022-11-22T05:52:19.311Z,98014.09
2022-11-22T05:55:08.308Z,98010.91
2022-11-22T05:58:00.155Z,98011.97
2022-11-22T06:00:48.396Z,98017.47
2022-11-22T06:03:37.724Z,98020.78
2022-11-22T06:06:28.839Z,98022.19
2022-11-22T06:09:20.722Z,98038.34
2022-11-22T06:12:11.849Z,98017.00
2022-11-22T06:15:06.149Z,98044.63
2022-11-22T06:17:56.848Z,98038.72
2022-11-22T06:20:45.072Z,98054.47
2022-11-22T06:23:34.078Z,98052.78
2022-11-22T06:26:24.091Z,98055.97
2022-11-22T06:29:12.909Z,98069.28
2022-11-22T06:32:03.877Z,98073.84
2022-11-22T06:34:52.221Z,98076.16
2022-11-22T06:37:40.088Z,98079.06
2022-11-22T06:40:27.872Z,98091.09
2022-11-22T06:43:15.899Z,98088.22
2022-11-22T06:46:05.545Z,98094.63
2022-11-22T06:48:53.548Z,98086.09
2022-11-22T06:51:42.050Z,98093.25
2022-11-22T06:54:30.058Z,98090.19
2022-11-22T06:57:18.152Z,98095.53
2022-11-22T07:00:16.396Z,98110.47
2022-11-22T07:03:07.472Z,98105.44
2022-11-22T07:05:57.450Z,98112.91
2022-11-22T07:08:50.253Z,98115.94
2022-11-22T07:11:39.394Z,98099.78
2022-11-22T07:14:27.353Z,98108.31
2022-11-22T07:17:15.451Z,98113.03
2022-11-22T07:20:03.984Z,98120.50
2022-11-22T07:22:51.972Z,98126.16
2022-11-22T07:25:44.530Z,98132.88
2022-11-22T07:28:35.477Z,98125.09
2022-11-22T07:31:26.554Z,98123.13
2022-11-22T07:34:14.690Z,98122.97
2022-11-22T07:37:08.749Z,98122.97
2022-11-22T07:39:57.871Z,98127.41
2022-11-22T07:42:46.208Z,98119.44
2022-11-22T07:45:34.329Z,98129.50
2022-11-22T07:48:28.480Z,98143.41
2022-11-22T07:51:19.820Z,98140.50
2022-11-22T07:54:17.551Z,98141.59
2022-11-22T07:57:05.531Z,98141.91
2022-11-22T07:59:53.477Z,98145.59
2022-11-22T08:02:41.602Z,98143.59
2022-11-22T08:05:32.781Z,98150.59
2022-11-22T08:08:35.058Z,98159.47
2022-11-22T08:15:29.243Z,98172.72
2022-11-22T08:18:34.282Z,98157.47
2022-11-22T08:21:25.028Z,98164.50
2022-11-22T08:24:17.427Z,98173.97
2022-11-22T08:27:07.489Z,98154.28
2022-11-22T08:30:21.735Z,98164.81
2022-11-22T08:33:27.695Z,98183.13
2022-11-22T08:36:21.854Z,98187.56
2022-11-22T08:39:27.245Z,98194.59
2022-11-22T08:46:12.526Z,98175.81
2022-11-22T08:53:04.514Z,98175.13
2022-11-22T09:56:42.121Z,98201.56
2022-11-22T10:21:38.885Z,98167.22
2022-11-22T10:25:40.839Z,98163.66
2022-11-22T10:58:43.579Z,98194.66
2022-11-22T11:10:42.006Z,98186.69
2022-11-22T11:22:58.445Z,98165.31
2022-11-22T11:25:59.504Z,98165.91
2022-11-22T11:33:54.878Z,98169.03
2022-11-22T11:37:41.923Z,98156.19
2022-11-22T12:15:34.222Z,98165.81
2022-11-22T12:18:49.092Z,98162.59
2022-11-22T12:23:17.229Z,98158.13
2022-11-22T12:30:32.363Z,98146.81
2022-11-22T12:33:41.816Z,98152.91
2022-11-22T12:42:10.352Z,98149.69
2022-11-22T12:59:16.338Z,98135.47
2022-11-22T13:02:58.771Z,98137.47
2022-11-22T13:23:48.696Z,98141.69
2022-11-22T13:28:14.757Z,98125.91
2022-11-22T13:31:41.398Z,98115.53
2022-11-22T13:36:04.228Z,98116.34
2022-11-22T13:40:05.376Z,98106.16
2022-11-22T13:52:59.943Z,98107.53
2022-11-22T14:04:47.381Z,98123.66
2022-11-22T14:12:59.985Z,98114.06
2022-11-22T14:53:39.297Z,98137.78
2022-11-22T14:54:13.555Z,98106.53
2022-11-22T14:56:35.693Z,98111.06
2022-11-22T15:09:18.783Z,98140.97
2022-11-22T16:31:06.787Z,98208.53
2022-11-22T16:37:53.661Z,98214.50
2022-11-22T16:41:01.149Z,98223.09
2022-11-22T16:47:26.421Z,98215.63
2022-11-22T16:50:35.861Z,98216.97
2022-11-22T16:54:09.768Z,98231.91
2022-11-22T17:04:59.212Z,98251.38
2022-11-22T17:18:51.813Z,98265.00
2022-11-22T17:50:59.718Z,98270.50
2022-11-22T17:56:45.608Z,98275.06
2022-11-22T18:14:24.506Z,98289.16
2022-11-22T18:17:24.350Z,98277.53
2022-11-22T18:20:25.006Z,98290.38
2022-11-22T18:26:41.318Z,98285.31
2022-11-22T18:39:21.472Z,98292.19
2022-11-22T18:50:18.619Z,98310.53
2022-11-22T19:00:22.489Z,98307.47
2022-11-22T19:03:36.191Z,98301.22
2022-11-22T19:10:13.783Z,98306.25
2022-11-22T19:16:47.524Z,98297.06
2022-11-22T19:19:56.884Z,98299.53
2022-11-22T19:26:54.201Z,98299.53
2022-11-22T19:33:51.196Z,98308.56
2022-11-22T19:40:11.292Z,98310.06
2022-11-22T19:43:26.218Z,98321.97
2022-11-22T19:46:33.854Z,98326.41
2022-11-22T19:50:14.690Z,98312.81
2022-11-22T19:53:05.143Z,98317.09
2022-11-22T20:04:27.195Z,98336.97
2022-11-22T20:10:48.833Z,98344.13
2022-11-22T20:21:41.862Z,98348.88
2022-11-22T20:29:27.472Z,98362.63
2022-11-22T20:35:45.886Z,98356.81
2022-11-22T20:53:10.380Z,98387.34
2022-11-22T20:59:11.676Z,98366.03
2022-11-22T21:02:15.685Z,98380.69
2022-11-22T21:08:27.436Z,98381.59
2022-11-22T21:11:51.857Z,98377.16
2022-11-22T21:15:03.476Z,98398.38
2022-11-22T21:18:25.497Z,98394.06
2022-11-22T21:35:47.177Z,98405.84
2022-11-22T21:38:58.931Z,98409.06
2022-11-22T21:42:36.351Z,98392.66
2022-11-22T21:46:13.004Z,98406.13
2022-11-22T21:49:18.846Z,98410.22
2022-11-22T21:52:30.143Z,98416.34
2022-11-22T21:55:34.623Z,98406.84
2022-11-22T21:59:24.150Z,98419.09
2022-11-22T22:09:58.783Z,98435.75
2022-11-22T22:13:35.024Z,98428.31
2022-11-22T22:20:49.909Z,98425.84
2022-11-22T22:24:03.980Z,98436.97
2022-11-22T22:33:02.068Z,98430.91
2022-11-22T22:41:34.885Z,98451.56
2022-11-22T22:45:10.545Z,98445.72
2022-11-22T22:48:03.002Z,98446.03
2022-11-22T22:51:48.914Z,98444.38
2022-11-22T22:55:02.484Z,98439.94
2022-11-22T22:58:21.988Z,98450.66
2022-11-22T23:01:32.743Z,98452.81
2022-11-22T23:04:34.183Z,98458.31
2022-11-22T23:07:43.898Z,98452.34
2022-11-22T23:14:00.463Z,98457.06
2022-11-22T23:16:59.929Z,98457.97
2022-11-22T23:19:54.627Z,98457.53
2022-11-22T23:22:57.849Z,98460.88
2022-11-22T23:25:56.745Z,98446.97
2022-11-22T23:29:09.526Z,98451.09
2022-11-22T23:41:31.576Z,98479.00
